Time;durP1;ratioP1;P1;durP2;ratioP2;P2;SDS_P1;SDS_P2;PMS_P1;PMS_P2;Temp;Humidity;BMP_temperature;BMP_pressure;BME280_temperature;BME280_humidity;BME280_pressure;Samples;Min_cycle;Max_cycle;Signal;HPM_P1;HPM_P2
2023/01/19 00:01:35;;;;;;;61.17;42.88;;;;;;;0.19;100.00;100034.09;5051247;28;20112;-55
2023/01/19 00:04:00;;;;;;;66.88;43.78;;;;;;;0.20;100.00;100028.25;5052893;28;20032;-55
2023/01/19 00:06:25;;;;;;;66.63;43.10;;;;;;;0.20;100.00;100020.66;5052841;28;20100;-55
2023/01/19 00:08:51;;;;;;;70.25;44.20;;;;;;;0.22;100.00;100020.72;5051385;28;20492;-55
2023/01/19 00:11:16;;;;;;;69.95;45.47;;;;;;;0.20;100.00;100025.72;5052546;28;20017;-55
2023/01/19 00:13:49;;;;;;;68.72;43.90;;;;;;;0.19;100.00;100031.56;5052272;28;20014;-55
2023/01/19 00:16:16;;;;;;;65.78;42.92;;;;;;;0.15;100.00;100029.66;5051770;28;20032;-55
2023/01/19 00:18:43;;;;;;;68.03;41.38;;;;;;;0.14;100.00;100038.03;5052364;28;20032;-55
2023/01/19 00:21:08;;;;;;;68.78;43.72;;;;;;;0.13;100.00;100031.19;5052320;28;20487;-55
2023/01/19 00:23:33;;;;;;;78.80;44.90;;;;;;;0.12;100.00;100034.53;5051399;28;20025;-55
2023/01/19 00:25:59;;;;;;;73.03;44.05;;;;;;;0.11;100.00;100040.38;5052334;28;20017;-55
2023/01/19 00:28:24;;;;;;;68.68;43.30;;;;;;;0.12;100.00;100037.06;5052427;28;20025;-55
2023/01/19 00:30:50;;;;;;;69.40;43.92;;;;;;;0.11;100.00;100030.25;5051220;28;20104;-55
2023/01/19 00:33:15;;;;;;;71.70;44.92;;;;;;;0.09;100.00;100030.16;5052298;28;20021;-55
2023/01/19 00:35:41;;;;;;;68.03;44.08;;;;;;;0.09;100.00;100037.78;5051708;28;20025;-55
2023/01/19 00:38:07;;;;;;;74.22;44.33;;;;;;;0.06;100.00;100041.78;5051927;28;20499;-55
2023/01/19 00:40:32;;;;;;;70.03;45.05;;;;;;;0.01;100.00;100043.16;5051783;28;20032;-56
2023/01/19 00:42:58;;;;;;;75.88;48.40;;;;;;;-0.05;100.00;100036.09;5052187;28;20048;-55
2023/01/19 00:45:24;;;;;;;82.63;48.38;;;;;;;-0.10;100.00;100038.34;5051751;28;20431;-55
2023/01/19 00:47:55;;;;;;;97.55;51.38;;;;;;;-0.14;100.00;100025.41;5051797;28;20488;-55
2023/01/19 00:50:21;;;;;;;89.75;51.75;;;;;;;-0.16;100.00;100022.78;5051571;28;20029;-55
2023/01/19 00:52:46;;;;;;;83.93;48.92;;;;;;;-0.20;100.00;100020.84;5051885;28;20464;-56
2023/01/19 00:55:14;;;;;;;95.93;51.50;;;;;;;-0.22;100.00;100017.34;5052202;28;20366;-55
2023/01/19 00:57:40;;;;;;;;;;;;;;;-0.17;100.00;100015.97;5051625;28;20032;-55
2023/01/19 01:00:10;;;;;;;92.22;50.63;;;;;;;-0.25;100.00;100035.75;5052019;28;19912;-55
2023/01/19 01:02:36;;;;;;;91.40;50.88;;;;;;;-0.23;100.00;100023.22;5054310;28;20107;-55
2023/01/19 01:05:01;;;;;;;98.90;55.20;;;;;;;-0.22;100.00;100035.06;5054798;28;20491;-55
2023/01/19 01:07:29;;;;;;;96.97;53.05;;;;;;;-0.22;100.00;100027.47;5055315;28;20045;-56
2023/01/19 01:09:55;;;;;;;97.25;53.10;;;;;;;-0.19;100.00;100032.75;5055600;28;20033;-55
2023/01/19 01:12:21;;;;;;;90.47;51.50;;;;;;;-0.18;100.00;100024.38;5054633;28;20468;-55
2023/01/19 01:14:46;;;;;;;93.57;51.10;;;;;;;-0.19;100.00;100033.59;5055350;28;20473;-55
2023/01/19 01:17:13;;;;;;;94.22;51.00;;;;;;;-0.18;100.00;100045.50;5055305;28;20103;-55
2023/01/19 01:19:39;;;;;;;87.55;50.88;;;;;;;-0.18;100.00;100042.09;5054375;28;20024;-56
2023/01/19 01:22:04;;;;;;;89.20;48.17;;;;;;;-0.12;100.00;100052.56;5055267;28;20033;-55
2023/01/19 01:24:30;;;;;;;80.25;46.90;;;;;;;-0.07;100.00;100052.84;5055101;28;20040;-55
2023/01/19 01:26:55;;;;;;;78.30;46.10;;;;;;;-0.03;100.00;100055.66;5054383;28;20078;-55
2023/01/19 01:29:20;;;;;;;83.95;46.05;;;;;;;-0.01;100.00;100049.00;5055420;28;20028;-56
2023/01/19 01:31:46;;;;;;;80.47;45.85;;;;;;;0.02;100.00;100042.38;5054861;28;20488;-56
2023/01/19 01:34:11;;;;;;;79.07;44.90;;;;;;;0.03;100.00;100039.06;5054504;28;20029;-55
2023/01/19 01:36:36;;;;;;;79.43;42.92;;;;;;;0.05;100.00;100040.88;5054665;28;20074;-55
2023/01/19 01:39:02;;;;;;;79.30;44.03;;;;;;;0.07;100.00;100035.94;5054800;28;20096;-56
2023/01/19 01:41:28;;;;;;;75.60;43.17;;;;;;;0.08;100.00;100041.09;5053970;28;20033;-55
2023/01/19 01:44:00;;;;;;;70.15;42.13;;;;;;;0.11;100.00;100048.00;5055146;28;20150;-55
2023/01/19 01:46:28;;;;;;;74.13;42.13;;;;;;;0.12;100.00;100049.75;5054230;28;20021;-55
2023/01/19 01:49:03;;;;;;;76.80;43.17;;;;;;;0.11;100.00;100042.91;5054716;28;20036;-56
2023/01/19 01:51:40;;;;;;;71.78;40.17;;;;;;;0.09;100.00;100047.00;5054593;28;20013;-55
2023/01/19 01:54:20;;;;;;;71.30;40.92;;;;;;;0.04;100.00;100050.94;5054021;28;20033;-55
2023/01/19 01:56:48;;;;;;;72.38;38.88;;;;;;;-0.01;100.00;100049.00;5054368;28;20448;-55
2023/01/19 01:59:25;;;;;;;72.88;39.65;;;;;;;-0.08;100.00;100057.06;5054820;28;20077;-55
2023/01/19 02:04:42;;;;;;;74.93;40.33;;;;;;;-0.28;100.00;100054.97;5054515;28;20044;-55
2023/01/19 02:15:24;;;;;;;75.50;41.50;;;;;;;-0.39;100.00;100061.91;5053900;28;20047;-55
2023/01/19 02:17:50;;;;;;;75.53;43.30;;;;;;;-0.42;100.00;100064.28;5053877;28;20108;-55
2023/01/19 02:20:16;;;;;;;76.30;43.00;;;;;;;-0.46;100.00;100058.13;5054403;28;20116;-55
2023/01/19 02:22:47;;;;;;;75.80;43.10;;;;;;;-0.53;100.00;100066.13;5053134;28;20051;-55
2023/01/19 02:25:13;;;;;;;83.20;41.60;;;;;;;-0.56;100.00;100071.00;5054115;28;20033;-55
2023/01/19 02:27:39;;;;;;;75.57;41.05;;;;;;;-0.64;100.00;100069.69;5054007;28;20025;-55
2023/01/19 02:30:06;;;;;;;83.82;43.10;;;;;;;-0.74;100.00;100071.63;5053417;28;20074;-55
2023/01/19 02:32:31;;;;;;;85.78;44.78;;;;;;;-0.78;100.00;100074.75;5053777;28;20061;-55
2023/01/19 02:34:57;;;;;;;82.60;44.03;;;;;;;-0.88;100.00;100077.47;5053902;28;20104;-56
2023/01/19 02:37:24;;;;;;;84.40;46.88;;;;;;;-0.93;100.00;100077.19;5053387;28;20099;-55
2023/01/19 02:39:51;;;;;;;90.90;49.58;;;;;;;-0.97;100.00;100082.81;5053452;28;20040;-55
2023/01/19 02:42:31;;;;;;;93.32;52.80;;;;;;;-0.98;100.00;100083.63;5053385;28;20481;-55
2023/01/19 02:44:56;;;;;;;95.68;54.20;;;;;;;-1.00;100.00;100082.63;5053268;28;20468;-55
2023/01/19 02:47:23;;;;;;;103.28;55.55;;;;;;;-1.04;100.00;100086.63;5053812;28;20025;-55
2023/01/19 02:49:56;;;;;;;106.90;60.13;;;;;;;-1.04;100.00;100084.09;5052672;28;20036;-55
2023/01/19 02:52:21;;;;;;;116.90;61.28;;;;;;;-1.06;100.00;100085.66;5053530;28;20052;-56
2023/01/19 02:55:26;;;;;;;117.57;62.63;;;;;;;-1.05;100.00;100087.38;5053405;28;20791;-55
2023/01/19 02:58:03;;;;;;;128.90;67.25;;;;;;;-1.08;100.00;100089.75;5041504;28;20473;-56
2023/01/19 03:00:51;;;;;;;115.10;68.00;;;;;;;-1.08;100.00;100092.25;5053357;28;20025;-55
2023/01/19 03:03:31;;;;;;;;;;;;;;;-1.06;100.00;100100.84;5053772;28;20029;-55
2023/01/19 03:06:04;;;;;;;123.65;70.05;;;;;;;-1.13;100.00;100095.28;5052909;28;19998;-55
2023/01/19 03:08:39;;;;;;;117.85;68.47;;;;;;;-1.14;100.00;100098.59;5052834;28;20045;-55
2023/01/19 03:11:08;;;;;;;114.90;68.65;;;;;;;-1.16;100.00;100111.13;5052511;28;20040;-55
2023/01/19 03:13:45;;;;;;;122.00;69.95;;;;;;;-1.14;100.00;100104.50;5053010;28;20029;-55
2023/01/19 03:16:42;;;;;;;62.15;24.83;;;;;;;-1.10;100.00;100118.22;5053398;28;20050;-56
2023/01/19 03:19:21;;;;;;;116.47;68.85;;;;;;;-1.10;100.00;100115.69;5052148;28;20393;-56
2023/01/19 03:21:51;;;;;;;114.80;67.93;;;;;;;-1.08;100.00;100115.03;5053002;28;20384;-56
2023/01/19 03:24:19;;;;;;;113.22;67.85;;;;;;;-1.07;100.00;100131.06;5052841;28;20051;-56
2023/01/19 03:26:51;;;;;;;112.63;65.65;;;;;;;-1.09;100.00;100120.84;5052094;28;20503;-55
2023/01/19 03:29:18;;;;;;;107.18;66.55;;;;;;;-1.14;100.00;100124.75;5053270;28;20032;-55
2023/01/19 03:31:46;;;;;;;105.40;65.50;;;;;;;-1.13;100.00;100126.50;5052445;28;20025;-56
2023/01/19 03:34:13;;;;;;;109.10;65.38;;;;;;;-1.16;100.00;100126.31;5052508;28;20029;-56
2023/01/19 03:37:01;;;;;;;112.70;70.32;;;;;;;-1.16;100.00;100122.13;5052827;28;20051;-56
2023/01/19 03:39:27;;;;;;;115.95;69.90;;;;;;;-1.20;100.00;100126.88;5052297;28;20086;-55
2023/01/19 03:41:58;;;;;;;118.47;70.38;;;;;;;-1.24;100.00;100132.50;5052790;28;20104;-56
2023/01/19 03:44:26;;;;;;;119.13;71.05;;;;;;;-1.25;100.00;100131.63;5052923;28;20032;-55
2023/01/19 03:46:52;;;;;;;117.68;71.38;;;;;;;-1.25;100.00;100140.84;5051893;28;20025;-55
2023/01/19 03:49:18;;;;;;;117.75;71.82;;;;;;;-1.26;100.00;100141.66;5052765;28;20025;-56
2023/01/19 03:51:44;;;;;;;114.97;70.50;;;;;;;-1.28;100.00;100151.66;5052218;28;20021;-55
2023/01/19 03:54:09;;;;;;;114.57;70.32;;;;;;;-1.28;100.00;100158.38;5051990;28;20104;-55
2023/01/19 03:56:35;;;;;;;107.60;65.85;;;;;;;-1.30;100.00;100154.84;5052427;28;20104;-55
2023/01/19 03:59:00;;;;;;;103.93;64.85;;;;;;;-1.30;100.00;100160.81;5052599;28;20025;-55
2023/01/19 04:01:25;;;;;;;95.80;61.78;;;;;;;-1.31;100.00;100155.66;5051840;28;20116;-55
2023/01/19 04:03:51;;;;;;;93.13;59.90;;;;;;;-1.30;100.00;100162.44;5052515;28;20082;-55
2023/01/19 04:06:18;;;;;;;92.25;57.15;;;;;;;-1.30;100.00;100172.53;5052519;28;20052;-55
2023/01/19 04:08:46;;;;;;;89.57;56.78;;;;;;;-1.32;100.00;100180.03;5051505;28;20560;-56
2023/01/19 04:11:12;;;;;;;41.58;17.48;;;;;;;-1.28;100.00;100186.19;5052541;28;20036;-56
2023/01/19 04:13:37;;;;;;;78.28;50.30;;;;;;;-1.34;100.00;100177.41;5051943;28;20036;-56
2023/01/19 04:16:03;;;;;;;79.53;49.78;;;;;;;-1.35;100.00;100180.72;5052235;28;20025;-56
2023/01/19 04:18:31;;;;;;;77.03;50.03;;;;;;;-1.36;100.00;100183.13;5052332;28;20040;-55
2023/01/19 04:21:01;;;;;;;66.95;44.45;;;;;;;-1.36;100.00;100183.13;5052272;28;20117;-56
2023/01/19 04:23:26;;;;;;;55.70;37.53;;;;;;;-1.36;100.00;100188.19;5051943;28;20029;-56
2023/01/19 04:26:05;;;;;;;55.10;33.70;;;;;;;-1.36;100.00;100193.25;5052387;28;20037;-56
2023/01/19 04:28:31;;;;;;;52.00;33.55;;;;;;;-1.38;100.00;100190.63;5051479;28;20048;-56
2023/01/19 04:30:58;;;;;;;52.05;34.50;;;;;;;-1.38;100.00;100194.78;5052505;28;20029;-56
2023/01/19 04:33:24;;;;;;;56.95;38.17;;;;;;;-1.38;100.00;100193.16;5052403;28;20028;-56
2023/01/19 04:35:51;;;;;;;53.15;35.60;;;;;;;-1.37;100.00;100210.09;5051315;28;20021;-56
2023/01/19 04:38:17;;;;;;;53.58;35.95;;;;;;;-1.38;100.00;100202.38;5056197;28;20056;-56
2023/01/19 04:40:42;;;;;;;53.13;36.13;;;;;;;-1.41;100.00;100195.47;5055701;28;20051;-56
2023/01/19 04:43:08;;;;;;;54.55;35.35;;;;;;;-1.41;100.00;100205.56;5055535;28;20025;-56
2023/01/19 04:45:33;;;;;;;50.92;33.65;;;;;;;-1.43;100.00;100212.19;5055883;28;20095;-56
2023/01/19 04:47:59;;;;;;;47.47;30.48;;;;;;;-1.42;100.00;100216.47;5056133;28;20108;-56
2023/01/19 04:50:24;;;;;;;38.38;24.50;;;;;;;-1.39;100.00;100204.03;5055261;28;20017;-56
2023/01/19 04:52:50;;;;;;;33.95;22.35;;;;;;;-1.40;100.00;100199.75;5055651;28;20032;-56
2023/01/19 04:55:16;;;;;;;33.20;21.20;;;;;;;-1.41;100.00;100185.34;5055571;28;20032;-56
2023/01/19 04:57:42;;;;;;;32.70;20.95;;;;;;;-1.44;100.00;100149.78;5055168;28;20488;-56
2023/01/19 05:00:09;;;;;;;33.03;20.88;;;;;;;-1.43;100.00;100136.38;5055801;28;20029;-56
2023/01/19 05:02:34;;;;;;;30.85;20.65;;;;;;;-1.41;100.00;100134.78;5055062;28;20477;-56
2023/01/19 05:04:59;;;;;;;35.28;21.00;;;;;;;-1.42;100.00;100145.72;5055269;28;20099;-56
2023/01/19 05:07:25;;;;;;;36.97;23.55;;;;;;;-1.41;100.00;100144.91;5055423;28;20052;-56
2023/01/19 05:09:51;;;;;;;38.10;24.50;;;;;;;-1.41;100.00;100144.03;5055107;28;20025;-56
2023/01/19 05:12:16;;;;;;;45.00;27.70;;;;;;;-1.39;100.00;100158.53;5055192;28;20039;-55
2023/01/19 05:14:42;;;;;;;43.47;28.20;;;;;;;-1.38;100.00;100146.75;5055407;28;20027;-56
2023/01/19 05:17:07;;;;;;;44.90;28.98;;;;;;;-1.41;100.00;100134.78;5055371;28;20025;-56
2023/01/19 05:19:32;;;;;;;49.15;30.48;;;;;;;-1.40;100.00;100131.50;5054499;28;20020;-56
2023/01/19 05:21:58;;;;;;;48.20;32.17;;;;;;;-1.40;100.00;100128.97;5055226;28;20033;-56
2023/01/19 05:24:23;;;;;;;54.38;32.38;;;;;;;-1.38;100.00;100129.97;5055104;28;20017;-56
2023/01/19 05:26:48;;;;;;;29.25;11.93;;;;;;;-1.35;100.00;100140.25;5054393;28;20021;-55
2023/01/19 05:29:14;;;;;;;55.38;33.47;;;;;;;-1.36;100.00;100138.50;5055424;28;20055;-56
2023/01/19 05:31:39;;;;;;;55.72;32.60;;;;;;;-1.34;100.00;100147.06;5054316;28;20383;-55
2023/01/19 05:34:04;;;;;;;54.85;32.35;;;;;;;-1.33;100.00;100153.00;5055368;28;20033;-56
2023/01/19 05:36:30;;;;;;;54.30;32.40;;;;;;;-1.31;100.00;100163.25;5054814;28;20029;-56
2023/01/19 05:38:55;;;;;;;54.83;32.63;;;;;;;-1.32;100.00;100162.34;5054244;28;20124;-55
2023/01/19 05:41:21;;;;;;;64.88;34.85;;;;;;;-1.27;100.00;100177.81;5055169;28;20532;-55
2023/01/19 05:43:46;;;;;;;56.90;33.17;;;;;;;-1.27;100.00;100163.53;5054877;28;20350;-55
2023/01/19 05:46:12;;;;;;;60.47;34.30;;;;;;;-1.26;100.00;100177.91;5054274;28;20017;-55
2023/01/19 05:48:37;;;;;;;60.78;36.33;;;;;;;-1.25;100.00;100173.72;5054426;28;20365;-55
2023/01/19 05:51:03;;;;;;;62.47;36.42;;;;;;;-1.25;100.00;100181.31;5054811;28;20029;-55
2023/01/19 05:53:29;;;;;;;79.50;40.65;;;;;;;-1.24;100.00;100185.59;5053791;28;20381;-56
2023/01/19 05:56:06;;;;;;;72.75;39.90;;;;;;;-1.21;100.00;100183.28;5054889;28;20484;-56
2023/01/19 05:58:33;;;;;;;74.88;41.20;;;;;;;-1.22;100.00;100189.97;5054407;28;20045;-56
2023/01/19 06:01:03;;;;;;;40.78;14.07;;;;;;;-1.17;100.00;100198.75;5054085;28;20021;-56
2023/01/19 06:03:28;;;;;;;73.57;41.67;;;;;;;-1.19;100.00;100189.31;5054370;28;20044;-56
2023/01/19 06:05:56;;;;;;;78.63;43.35;;;;;;;-1.16;100.00;100197.13;5054338;28;20025;-56
2023/01/19 06:08:21;;;;;;;81.72;44.00;;;;;;;-1.17;100.00;100196.22;5053775;28;20045;-56
2023/01/19 06:10:47;;;;;;;87.18;44.85;;;;;;;-1.14;100.00;100197.22;5054116;28;20044;-56
2023/01/19 06:13:12;;;;;;;90.40;44.00;;;;;;;-1.14;100.00;100198.06;5054276;28;20052;-56
2023/01/19 06:15:37;;;;;;;85.97;46.08;;;;;;;-1.08;100.00;100205.22;5053593;28;20060;-56
2023/01/19 06:18:02;;;;;;;90.47;48.20;;;;;;;-1.08;100.00;100203.53;5054202;28;20103;-56
2023/01/19 06:20:28;;;;;;;96.50;48.05;;;;;;;-1.09;100.00;100206.84;5053854;28;20112;-56
2023/01/19 06:22:56;;;;;;;100.03;49.72;;;;;;;-1.07;100.00;100207.81;5053478;28;20380;-56
2023/01/19 06:25:21;;;;;;;99.10;50.00;;;;;;;-1.07;100.00;100212.88;5054339;28;20021;-56
2023/01/19 06:27:47;;;;;;;98.00;49.92;;;;;;;-1.07;100.00;100217.94;5053399;28;20029;-56
2023/01/19 06:30:12;;;;;;;99.68;51.72;;;;;;;-1.05;100.00;100221.44;5054141;28;20020;-56
2023/01/19 06:32:38;;;;;;;55.72;18.50;;;;;;;-1.03;100.00;100224.09;5053775;28;20013;-56
2023/01/19 06:35:04;;;;;;;102.00;58.58;;;;;;;-1.03;100.00;100229.16;5053073;28;20039;-56
2023/01/19 06:37:30;;;;;;;112.13;61.97;;;;;;;-1.00;100.00;100235.25;5053461;28;20116;-56
2023/01/19 06:39:55;;;;;;;111.75;63.78;;;;;;;-1.02;100.00;100236.81;5054009;28;20041;-56
2023/01/19 06:42:20;;;;;;;111.65;66.05;;;;;;;-1.00;100.00;100239.44;5053005;28;20084;-56
2023/01/19 06:44:46;;;;;;;117.40;69.43;;;;;;;-1.00;100.00;100235.25;5053660;28;20029;-56
2023/01/19 06:47:13;;;;;;;137.00;76.45;;;;;;;-0.99;100.00;100246.28;5053746;28;20033;-56
2023/01/19 06:49:38;;;;;;;132.13;78.63;;;;;;;-0.98;100.00;100247.13;5052706;28;20116;-56
2023/01/19 06:52:04;;;;;;;149.48;86.93;;;;;;;-0.95;100.00;100252.41;5053588;28;20111;-56
2023/01/19 06:54:29;;;;;;;153.93;92.47;;;;;;;-0.93;100.00;100248.31;5053351;28;20031;-56
2023/01/19 06:56:54;;;;;;;166.63;97.22;;;;;;;-0.95;100.00;100260.00;5053087;28;20036;-56
2023/01/19 06:59:19;;;;;;;161.45;98.13;;;;;;;-0.92;100.00;100262.72;5053148;28;20107;-56
2023/01/19 07:01:45;;;;;;;166.02;99.47;;;;;;;-0.91;100.00;100270.41;5052895;28;20044;-56
2023/01/19 07:04:13;;;;;;;172.93;105.97;;;;;;;-0.87;100.00;100268.97;5052847;28;20039;-56
2023/01/19 07:06:38;;;;;;;;;;;;;;;-0.86;100.00;100264.00;5053419;28;20381;-56
2023/01/19 07:09:06;;;;;;;185.17;108.73;;;;;;;-0.84;100.00;100271.69;5053039;28;20387;-56
2023/01/19 07:11:32;;;;;;;185.60;107.43;;;;;;;-0.86;100.00;100276.66;5052738;28;20347;-56
2023/01/19 07:13:57;;;;;;;192.88;112.47;;;;;;;-0.84;100.00;100281.81;5053366;28;20029;-56
2023/01/19 07:16:22;;;;;;;201.45;115.65;;;;;;;-0.86;100.00;100280.84;5053062;28;20024;-56
2023/01/19 07:18:48;;;;;;;200.57;113.13;;;;;;;-0.86;100.00;100288.44;5052337;28;20027;-56
2023/01/19 07:21:14;;;;;;;192.63;112.47;;;;;;;-0.87;100.00;100286.69;5052939;28;20477;-56
2023/01/19 07:23:39;;;;;;;205.63;118.78;;;;;;;-0.84;100.00;100282.69;5052485;28;20040;-56
2023/01/19 07:26:05;;;;;;;210.90;114.38;;;;;;;-0.84;100.00;100289.41;5052683;28;20108;-56
2023/01/19 07:28:31;;;;;;;225.90;119.55;;;;;;;-0.79;100.00;100293.09;5052872;28;20029;-56
2023/01/19 07:30:57;;;;;;;205.05;116.93;;;;;;;-0.79;100.00;100295.63;5052719;28;20535;-56
2023/01/19 07:33:23;;;;;;;223.32;122.05;;;;;;;-0.78;100.00;100299.94;5052272;28;20116;-56
2023/01/19 07:35:49;;;;;;;233.02;123.85;;;;;;;-0.77;100.00;100303.34;5052552;28;20415;-56
2023/01/19 07:38:16;;;;;;;227.13;125.18;;;;;;;-0.74;100.00;100301.88;5051986;28;20376;-56
2023/01/19 07:40:42;;;;;;;235.65;126.13;;;;;;;-0.73;100.00;100300.25;5052545;28;20500;-56
2023/01/19 07:43:07;;;;;;;235.18;125.32;;;;;;;-0.71;100.00;100302.09;5052697;28;20115;-56
2023/01/19 07:45:34;;;;;;;224.07;124.53;;;;;;;-0.71;100.00;100312.22;5051772;28;20017;-56
2023/01/19 07:47:59;;;;;;;236.68;130.18;;;;;;;-0.70;100.00;100316.50;5052732;28;20025;-56
2023/01/19 07:50:26;;;;;;;230.85;126.47;;;;;;;-0.69;100.00;100320.78;5052638;28;20518;-56
2023/01/19 07:52:52;;;;;;;222.45;120.68;;;;;;;-0.67;100.00;100323.44;5051835;28;20037;-56
2023/01/19 07:55:19;;;;;;;232.63;120.68;;;;;;;-0.69;100.00;100333.44;5052799;28;20107;-56
2023/01/19 07:57:48;;;;;;;216.82;118.63;;;;;;;-0.71;100.00;100334.09;5052174;28;20025;-56
2023/01/19 08:00:14;;;;;;;229.63;117.28;;;;;;;-0.70;100.00;100339.28;5052144;28;20381;-56
2023/01/19 08:02:40;;;;;;;218.05;120.45;;;;;;;-0.68;100.00;100339.38;5052293;28;20531;-56
2023/01/19 08:05:05;;;;;;;214.70;115.90;;;;;;;-0.73;100.00;100340.72;5052738;28;20487;-56
2023/01/19 08:07:32;;;;;;;206.73;113.20;;;;;;;-0.73;100.00;100344.13;5051673;28;20140;-57
2023/01/19 08:09:57;;;;;;;216.13;115.05;;;;;;;-0.69;100.00;100341.03;5052766;28;20075;-56
2023/01/19 08:12:23;;;;;;;209.48;112.47;;;;;;;-0.74;100.00;100352.50;5055000;28;20029;-56
2023/01/19 08:14:48;;;;;;;210.57;113.03;;;;;;;-0.72;100.00;100350.94;5055704;28;20021;-56
2023/01/19 08:17:13;;;;;;;211.02;110.30;;;;;;;-0.75;100.00;100358.34;5056521;28;20096;-57
2023/01/19 08:19:39;;;;;;;212.18;112.18;;;;;;;-0.74;100.00;100365.13;5055967;28;20052;-56
2023/01/19 08:22:04;;;;;;;214.90;114.75;;;;;;;-0.77;100.00;100370.00;5055976;28;20029;-56
2023/01/19 08:24:30;;;;;;;206.60;111.93;;;;;;;-0.77;100.00;100364.94;5056080;28;20045;-56
2023/01/19 08:26:59;;;;;;;229.77;115.90;;;;;;;-0.73;100.00;100381.22;5056206;28;20025;-56
2023/01/19 08:29:25;;;;;;;222.43;113.25;;;;;;;-0.75;100.00;100380.22;5055955;28;20021;-56
2023/01/19 08:31:51;;;;;;;225.00;113.38;;;;;;;-0.77;100.00;100390.25;5055809;28;20461;-56
2023/01/19 08:34:17;;;;;;;217.48;111.82;;;;;;;-0.76;100.00;100392.00;5055953;28;20025;-56
2023/01/19 08:36:42;;;;;;;236.75;115.95;;;;;;;-0.74;100.00;100394.63;5055259;28;20031;-56
2023/01/19 08:39:11;;;;;;;242.05;115.32;;;;;;;-0.75;100.00;100398.84;5055859;28;20028;-56
2023/01/19 08:41:36;;;;;;;254.77;116.90;;;;;;;-0.75;100.00;100401.38;5055112;28;20036;-58
2023/01/19 08:44:01;;;;;;;254.90;119.85;;;;;;;-0.73;100.00;100402.34;5056057;28;20029;-57
2023/01/19 08:46:27;;;;;;;252.43;120.15;;;;;;;-0.75;100.00;100405.53;5055908;28;20049;-57
2023/01/19 08:48:52;;;;;;;262.15;119.20;;;;;;;-0.72;100.00;100418.41;5055223;28;20029;-58
2023/01/19 08:51:17;;;;;;;261.17;116.60;;;;;;;-0.79;100.00;100422.16;5056073;28;20126;-57
2023/01/19 08:53:43;;;;;;;269.55;116.60;;;;;;;-0.75;100.00;100433.38;5055592;28;20461;-58
2023/01/19 08:56:13;;;;;;;261.50;115.50;;;;;;;-0.81;100.00;100438.91;5055230;28;20017;-57
2023/01/19 08:58:40;;;;;;;259.65;116.60;;;;;;;-0.77;100.00;100445.91;5055557;28;20531;-57
2023/01/19 09:01:07;;;;;;;;;;;;;;;-0.72;100.00;100447.13;5055866;28;20024;-58
2023/01/19 09:03:33;;;;;;;272.98;122.10;;;;;;;-0.73;100.00;100436.91;5054855;28;19919;-56
2023/01/19 09:05:58;;;;;;;276.38;123.75;;;;;;;-0.78;100.00;100444.16;5055604;28;20453;-56
2023/01/19 09:08:23;;;;;;;290.67;124.90;;;;;;;-0.75;100.00;100449.44;5055273;28;20091;-57
2023/01/19 09:10:50;;;;;;;282.45;123.35;;;;;;;-0.77;100.00;100445.91;5054835;28;20116;-57
2023/01/19 09:13:17;;;;;;;287.17;123.15;;;;;;;-0.75;100.00;100444.38;5055460;28;20052;-57
2023/01/19 09:15:42;;;;;;;296.85;125.18;;;;;;;-0.76;100.00;100442.63;5054949;28;20032;-57
2023/01/19 09:18:12;;;;;;;290.60;127.10;;;;;;;-0.77;100.00;100445.91;5055174;28;20032;-57
2023/01/19 09:20:42;;;;;;;312.45;130.48;;;;;;;-0.76;100.00;100442.63;5055136;28;20029;-57
2023/01/19 09:23:11;;;;;;;316.25;130.88;;;;;;;-0.78;100.00;100444.16;5054740;28;20100;-57
2023/01/19 09:25:37;;;;;;;318.58;131.45;;;;;;;-0.76;100.00;100452.75;5054497;28;20032;-57
2023/01/19 09:28:04;;;;;;;348.58;136.38;;;;;;;-0.76;100.00;100460.34;5055222;28;20025;-57
2023/01/19 09:30:31;;;;;;;342.48;136.15;;;;;;;-0.73;100.00;100447.00;5054569;28;20533;-57
2023/01/19 09:33:01;;;;;;;346.60;135.10;;;;;;;-0.75;100.00;100456.13;5054791;28;20104;-57
2023/01/19 09:35:26;;;;;;;335.38;134.27;;;;;;;-0.72;100.00;100462.28;5055042;28;20491;-57
2023/01/19 09:37:51;;;;;;;360.50;139.93;;;;;;;-0.70;100.00;100450.63;5054145;28;20029;-57
2023/01/19 09:40:19;;;;;;;371.20;138.75;;;;;;;-0.64;100.00;100461.94;5055058;28;20029;-57
2023/01/19 09:42:52;;;;;;;360.75;143.98;;;;;;;-0.61;100.00;100457.94;5054776;28;20073;-57
2023/01/19 09:45:21;;;;;;;359.45;142.23;;;;;;;-0.58;100.00;100458.19;5054115;28;20476;-57
2023/01/19 09:47:48;;;;;;;356.23;142.98;;;;;;;-0.52;100.00;100462.78;5054582;28;20039;-57
2023/01/19 09:50:27;;;;;;;345.73;140.55;;;;;;;-0.50;100.00;100462.09;5054736;28;20019;-57
2023/01/19 09:53:03;;;;;;;318.88;132.90;;;;;;;-0.48;100.00;100474.00;5054354;28;20024;-56
2023/01/19 09:55:29;;;;;;;321.45;131.70;;;;;;;-0.40;100.00;100475.38;5054439;28;20036;-57
2023/01/19 09:57:55;;;;;;;295.63;127.80;;;;;;;-0.40;100.00;100468.69;5054445;28;20465;-57
2023/01/19 10:00:22;;;;;;;276.45;120.93;;;;;;;-0.35;100.00;100471.50;5053978;28;20021;-57
2023/01/19 10:02:55;;;;;;;252.15;114.40;;;;;;;-0.30;100.00;100485.34;5054465;28;20469;-57
2023/01/19 10:05:35;;;;;;;252.75;113.45;;;;;;;-0.21;100.00;100482.56;5054423;28;20366;-57
2023/01/19 10:08:37;;;;;;;246.68;114.30;;;;;;;-0.13;100.00;100489.03;5053805;28;20130;-57
2023/01/19 10:11:21;;;;;;;217.32;101.57;;;;;;;-0.12;100.00;100480.63;5035769;28;20044;-57
2023/01/19 10:13:53;;;;;;;212.80;101.45;;;;;;;-0.06;100.00;100486.09;5053617;28;20468;-57
2023/01/19 10:16:42;;;;;;;204.05;97.47;;;;;;;-0.01;100.00;100484.75;5054361;28;20032;-57
2023/01/19 10:19:22;;;;;;;194.20;94.40;;;;;;;0.04;100.00;100486.72;5054211;28;20021;-57
2023/01/19 10:21:49;;;;;;;186.77;91.10;;;;;;;0.09;100.00;100485.34;5053440;28;20041;-57
2023/01/19 10:24:32;;;;;;;184.97;87.73;;;;;;;0.09;100.00;100488.78;5054097;28;20028;-57
2023/01/19 10:26:57;;;;;;;177.60;86.10;;;;;;;0.12;100.00;100488.13;5053252;28;20678;-57
2023/01/19 10:29:36;;;;;;;177.65;87.47;;;;;;;0.19;100.00;100494.47;5054253;28;20032;-57
2023/01/19 10:32:26;;;;;;;179.00;85.53;;;;;;;0.24;100.00;100490.56;5053976;28;20028;-57
2023/01/19 10:34:53;;;;;;;176.13;84.60;;;;;;;0.24;100.00;100496.50;5052320;28;20049;-57
2023/01/19 10:37:33;;;;;;;168.57;80.87;;;;;;;0.29;100.00;100500.22;5054105;28;20028;-57
2023/01/19 10:39:58;;;;;;;166.25;76.90;;;;;;;0.32;100.00;100497.91;5053705;28;20079;-56
2023/01/19 10:42:28;;;;;;;162.65;76.60;;;;;;;0.34;100.00;100495.47;5053278;28;20029;-56
2023/01/19 10:44:53;;;;;;;156.38;74.50;;;;;;;0.40;100.00;100502.56;5053719;28;20385;-57
2023/01/19 10:47:21;;;;;;;142.13;73.35;;;;;;;0.42;100.00;100504.44;5053361;28;20456;-57
2023/01/19 10:49:47;;;;;;;138.15;69.80;;;;;;;0.47;100.00;100492.94;5053068;28;20025;-57
2023/01/19 10:52:32;;;;;;;140.40;67.63;;;;;;;0.48;100.00;100499.75;5053757;28;20047;-57
2023/01/19 10:54:59;;;;;;;139.35;70.45;;;;;;;0.57;100.00;100502.00;5053486;28;20113;-57
2023/01/19 10:57:29;;;;;;;147.73;70.00;;;;;;;0.59;100.00;100502.97;5053367;28;20385;-57
2023/01/19 10:59:55;;;;;;;130.50;65.15;;;;;;;0.64;100.00;100501.59;5053499;28;20021;-57
2023/01/19 11:02:28;;;;;;;132.45;65.50;;;;;;;0.72;100.00;100501.22;5052776;28;20825;-56
2023/01/19 11:04:59;;;;;;;139.98;65.57;;;;;;;0.92;100.00;100502.50;5053535;28;20151;-57
2023/01/19 11:07:30;;;;;;;127.80;62.25;;;;;;;1.02;100.00;100501.41;5052818;28;20365;-57
2023/01/19 11:10:10;;;;;;;139.38;65.80;;;;;;;1.12;100.00;100498.66;5052706;28;20423;-56
2023/01/19 11:12:40;;;;;;;125.70;59.25;;;;;;;1.18;100.00;100488.88;5052899;28;20460;-57